sensor_id;sensor_type;location;lat;lon;timestamp;pressure;altitude;pressure_sealevel;temperature;humidity
32324;BME280;25666;44.350;9.222;2023-04-25T00:01:36;100827.84;;;13.04;100.00
32324;BME280;25666;44.350;9.222;2023-04-25T00:04:02;100828.97;;;13.00;100.00
32324;BME280;25666;44.350;9.222;2023-04-25T00:06:29;100822.09;;;12.78;100.00
32324;BME280;25666;44.350;9.222;2023-04-25T00:08:55;100826.84;;;12.77;100.00
32324;BME280;25666;44.350;9.222;2023-04-25T00:11:22;100822.59;;;12.83;100.00
32324;BME280;25666;44.350;9.222;2023-04-25T00:13:47;100832.59;;;12.84;100.00
32324;BME280;25666;44.350;9.222;2023-04-25T00:16:15;100837.56;;;12.60;100.00
32324;BME280;25666;44.350;9.222;2023-04-25T00:18:41;100834.53;;;12.49;100.00
32324;BME280;25666;44.350;9.222;2023-04-25T00:21:07;100835.25;;;12.62;100.00
32324;BME280;25666;44.350;9.222;2023-04-25T00:23:32;100827.13;;;12.72;100.00
32324;BME280;25666;44.350;9.222;2023-04-25T00:25:58;100823.84;;;12.86;100.00
32324;BME280;25666;44.350;9.222;2023-04-25T00:28:23;100813.63;;;12.74;100.00
32324;BME280;25666;44.350;9.222;2023-04-25T00:30:49;100803.09;;;12.68;100.00
32324;BME280;25666;44.350;9.222;2023-04-25T00:33:15;100805.25;;;12.59;100.00
32324;BME280;25666;44.350;9.222;2023-04-25T00:35:41;100808.50;;;12.45;100.00
32324;BME280;25666;44.350;9.222;2023-04-25T00:38:07;100804.78;;;12.57;100.00
32324;BME280;25666;44.350;9.222;2023-04-25T00:40:35;100795.34;;;12.61;100.00
32324;BME280;25666;44.350;9.222;2023-04-25T00:43:01;100799.47;;;12.67;100.00
32324;BME280;25666;44.350;9.222;2023-04-25T00:45:30;100805.72;;;12.45;100.00
32324;BME280;25666;44.350;9.222;2023-04-25T00:47:56;100802.50;;;12.43;100.00
32324;BME280;25666;44.350;9.222;2023-04-25T00:50:23;100800.84;;;12.42;100.00
32324;BME280;25666;44.350;9.222;2023-04-25T00:52:48;100804.09;;;12.28;100.00
32324;BME280;25666;44.350;9.222;2023-04-25T00:55:14;100794.91;;;12.28;100.00
32324;BME280;25666;44.350;9.222;2023-04-25T00:57:41;100794.56;;;12.14;100.00
32324;BME280;25666;44.350;9.222;2023-04-25T01:00:08;100796.91;;;11.96;100.00
32324;BME280;25666;44.350;9.222;2023-04-25T01:02:35;100801.91;;;11.91;100.00
32324;BME280;25666;44.350;9.222;2023-04-25T01:05:02;100793.56;;;12.06;100.00
32324;BME280;25666;44.350;9.222;2023-04-25T01:07:27;100794.03;;;12.24;100.00
32324;BME280;25666;44.350;9.222;2023-04-25T01:09:53;100779.25;;;12.23;100.00
32324;BME280;25666;44.350;9.222;2023-04-25T01:12:19;100778.16;;;12.28;100.00
32324;BME280;25666;44.350;9.222;2023-04-25T01:14:44;100778.34;;;12.19;100.00
32324;BME280;25666;44.350;9.222;2023-04-25T01:17:10;100773.16;;;12.02;100.00
32324;BME280;25666;44.350;9.222;2023-04-25T01:19:36;100775.31;;;11.93;100.00
32324;BME280;25666;44.350;9.222;2023-04-25T01:22:02;100774.84;;;11.91;100.00
32324;BME280;25666;44.350;9.222;2023-04-25T01:24:31;100777.50;;;11.72;100.00
32324;BME280;25666;44.350;9.222;2023-04-25T01:26:58;100777.34;;;11.80;100.00
32324;BME280;25666;44.350;9.222;2023-04-25T01:29:24;100778.81;;;11.90;100.00
32324;BME280;25666;44.350;9.222;2023-04-25T01:31:51;100776.91;;;12.10;100.00
32324;BME280;25666;44.350;9.222;2023-04-25T01:34:17;100766.75;;;12.17;100.00
32324;BME280;25666;44.350;9.222;2023-04-25T01:36:42;100764.50;;;12.23;100.00
32324;BME280;25666;44.350;9.222;2023-04-25T01:39:09;100767.66;;;12.21;100.00
32324;BME280;25666;44.350;9.222;2023-04-25T01:41:34;100772.22;;;12.29;100.00
32324;BME280;25666;44.350;9.222;2023-04-25T01:44:00;100763.44;;;12.12;100.00
32324;BME280;25666;44.350;9.222;2023-04-25T01:46:26;100765.75;;;12.25;100.00
32324;BME280;25666;44.350;9.222;2023-04-25T01:48:52;100764.38;;;12.35;100.00
32324;BME280;25666;44.350;9.222;2023-04-25T01:51:18;100773.66;;;12.39;100.00
32324;BME280;25666;44.350;9.222;2023-04-25T01:53:44;100779.88;;;12.32;100.00
32324;BME280;25666;44.350;9.222;2023-04-25T01:56:10;100774.31;;;12.17;100.00
32324;BME280;25666;44.350;9.222;2023-04-25T01:58:36;100783.41;;;12.14;100.00
32324;BME280;25666;44.350;9.222;2023-04-25T02:01:01;100770.34;;;12.18;100.00
32324;BME280;25666;44.350;9.222;2023-04-25T02:03:34;100764.22;;;12.28;100.00
32324;BME280;25666;44.350;9.222;2023-04-25T02:06:01;100760.34;;;12.32;100.00
32324;BME280;25666;44.350;9.222;2023-04-25T02:08:28;100763.50;;;12.15;100.00
32324;BME280;25666;44.350;9.222;2023-04-25T02:10:54;100756.41;;;12.18;100.00
32324;BME280;25666;44.350;9.222;2023-04-25T02:13:20;100749.81;;;12.26;100.00
32324;BME280;25666;44.350;9.222;2023-04-25T02:16:08;100747.63;;;12.35;100.00
32324;BME280;25666;44.350;9.222;2023-04-25T02:18:37;100743.97;;;12.47;100.00
32324;BME280;25666;44.350;9.222;2023-04-25T02:21:05;100737.19;;;12.48;100.00
32324;BME280;25666;44.350;9.222;2023-04-25T02:23:31;100728.75;;;12.28;100.00
32324;BME280;25666;44.350;9.222;2023-04-25T02:25:58;100733.63;;;12.00;100.00
32324;BME280;25666;44.350;9.222;2023-04-25T02:28:24;100732.75;;;12.12;100.00
32324;BME280;25666;44.350;9.222;2023-04-25T02:30:51;100730.00;;;12.15;100.00
32324;BME280;25666;44.350;9.222;2023-04-25T02:33:17;100727.06;;;12.24;100.00
32324;BME280;25666;44.350;9.222;2023-04-25T02:35:42;100728.22;;;11.92;100.00
32324;BME280;25666;44.350;9.222;2023-04-25T02:38:08;100724.19;;;11.73;100.00
32324;BME280;25666;44.350;9.222;2023-04-25T02:40:33;100725.63;;;11.83;100.00
32324;BME280;25666;44.350;9.222;2023-04-25T02:42:59;100733.19;;;11.82;100.00
32324;BME280;25666;44.350;9.222;2023-04-25T02:45:25;100731.84;;;11.49;100.00
32324;BME280;25666;44.350;9.222;2023-04-25T02:47:51;100726.09;;;11.57;100.00
32324;BME280;25666;44.350;9.222;2023-04-25T02:50:18;100734.97;;;11.75;100.00
32324;BME280;25666;44.350;9.222;2023-04-25T02:52:43;100735.59;;;11.84;100.00
32324;BME280;25666;44.350;9.222;2023-04-25T02:55:14;100722.31;;;11.77;100.00
32324;BME280;25666;44.350;9.222;2023-04-25T02:57:40;100724.41;;;11.68;100.00
32324;BME280;25666;44.350;9.222;2023-04-25T03:00:07;100720.94;;;11.71;100.00
32324;BME280;25666;44.350;9.222;2023-04-25T03:02:32;100728.00;;;11.69;100.00
32324;BME280;25666;44.350;9.222;2023-04-25T03:04:58;100734.84;;;11.56;100.00
32324;BME280;25666;44.350;9.222;2023-04-25T03:07:23;100730.22;;;11.48;100.00
32324;BME280;25666;44.350;9.222;2023-04-25T03:09:49;100738.28;;;11.37;100.00
32324;BME280;25666;44.350;9.222;2023-04-25T03:12:15;100736.88;;;11.43;100.00
32324;BME280;25666;44.350;9.222;2023-04-25T03:14:41;100728.69;;;11.50;100.00
32324;BME280;25666;44.350;9.222;2023-04-25T03:17:06;100725.59;;;11.67;100.00
32324;BME280;25666;44.350;9.222;2023-04-25T03:19:34;100733.69;;;11.72;100.00
32324;BME280;25666;44.350;9.222;2023-04-25T03:21:59;100729.81;;;11.61;100.00
32324;BME280;25666;44.350;9.222;2023-04-25T03:24:25;100732.06;;;11.56;100.00
32324;BME280;25666;44.350;9.222;2023-04-25T03:26:52;100736.25;;;11.65;100.00
32324;BME280;25666;44.350;9.222;2023-04-25T03:29:17;100733.56;;;11.53;100.00
32324;BME280;25666;44.350;9.222;2023-04-25T03:31:43;100731.88;;;11.64;100.00
32324;BME280;25666;44.350;9.222;2023-04-25T03:34:09;100736.06;;;11.70;100.00
32324;BME280;25666;44.350;9.222;2023-04-25T03:36:35;100728.22;;;11.76;100.00
32324;BME280;25666;44.350;9.222;2023-04-25T03:39:00;100733.47;;;11.77;100.00
32324;BME280;25666;44.350;9.222;2023-04-25T03:41:27;100732.13;;;11.87;100.00
32324;BME280;25666;44.350;9.222;2023-04-25T03:43:59;100730.50;;;11.86;100.00
32324;BME280;25666;44.350;9.222;2023-04-25T03:46:26;100722.41;;;11.69;100.00
32324;BME280;25666;44.350;9.222;2023-04-25T03:48:51;100724.91;;;11.70;100.00
32324;BME280;25666;44.350;9.222;2023-04-25T03:51:21;100730.28;;;11.79;100.00
32324;BME280;25666;44.350;9.222;2023-04-25T03:53:47;100730.38;;;11.82;100.00
32324;BME280;25666;44.350;9.222;2023-04-25T03:56:19;100726.97;;;11.73;100.00
32324;BME280;25666;44.350;9.222;2023-04-25T03:58:47;100730.41;;;11.55;100.00
32324;BME280;25666;44.350;9.222;2023-04-25T04:01:15;100728.53;;;11.43;100.00
32324;BME280;25666;44.350;9.222;2023-04-25T04:03:41;100736.16;;;11.46;100.00
32324;BME280;25666;44.350;9.222;2023-04-25T04:06:07;100738.41;;;11.56;100.00
32324;BME280;25666;44.350;9.222;2023-04-25T04:08:36;100737.31;;;11.73;100.00
32324;BME280;25666;44.350;9.222;2023-04-25T04:11:02;100745.81;;;11.64;100.00
32324;BME280;25666;44.350;9.222;2023-04-25T04:13:28;100746.16;;;11.63;100.00
32324;BME280;25666;44.350;9.222;2023-04-25T04:15:54;100746.50;;;11.89;100.00
32324;BME280;25666;44.350;9.222;2023-04-25T04:18:21;100753.41;;;11.79;100.00
32324;BME280;25666;44.350;9.222;2023-04-25T04:20:47;100758.72;;;11.85;100.00
32324;BME280;25666;44.350;9.222;2023-04-25T04:23:13;100754.41;;;11.71;100.00
32324;BME280;25666;44.350;9.222;2023-04-25T04:25:39;100764.41;;;11.60;100.00
32324;BME280;25666;44.350;9.222;2023-04-25T04:28:41;100772.19;;;11.39;100.00
32324;BME280;25666;44.350;9.222;2023-04-25T04:31:26;100776.94;;;11.39;100.00
32324;BME280;25666;44.350;9.222;2023-04-25T04:33:52;100790.16;;;11.42;100.00
32324;BME280;25666;44.350;9.222;2023-04-25T04:36:18;100784.53;;;11.26;100.00
32324;BME280;25666;44.350;9.222;2023-04-25T04:38:47;100782.56;;;11.54;100.00
32324;BME280;25666;44.350;9.222;2023-04-25T04:41:22;100774.38;;;11.46;100.00
32324;BME280;25666;44.350;9.222;2023-04-25T04:43:53;100776.78;;;11.47;100.00
32324;BME280;25666;44.350;9.222;2023-04-25T04:46:28;100776.28;;;11.57;100.00
32324;BME280;25666;44.350;9.222;2023-04-25T04:49:12;100772.44;;;11.62;100.00
32324;BME280;25666;44.350;9.222;2023-04-25T04:52:14;100772.88;;;11.64;100.00
32324;BME280;25666;44.350;9.222;2023-04-25T04:54:52;100782.78;;;11.61;100.00
32324;BME280;25666;44.350;9.222;2023-04-25T04:57:35;100774.41;;;11.61;100.00
32324;BME280;25666;44.350;9.222;2023-04-25T05:00:20;100772.50;;;11.65;100.00
32324;BME280;25666;44.350;9.222;2023-04-25T05:02:47;100760.97;;;11.79;100.00
32324;BME280;25666;44.350;9.222;2023-04-25T05:05:32;100763.31;;;11.77;100.00
32324;BME280;25666;44.350;9.222;2023-04-25T05:08:24;100781.22;;;11.48;100.00
32324;BME280;25666;44.350;9.222;2023-04-25T05:11:04;100775.66;;;11.64;100.00
32324;BME280;25666;44.350;9.222;2023-04-25T05:14:02;100778.06;;;11.77;100.00
32324;BME280;25666;44.350;9.222;2023-04-25T05:17:02;100777.28;;;11.93;100.00
32324;BME280;25666;44.350;9.222;2023-04-25T05:19:54;100771.78;;;11.96;100.00
32324;BME280;25666;44.350;9.222;2023-04-25T05:22:33;100772.88;;;12.07;100.00
32324;BME280;25666;44.350;9.222;2023-04-25T05:25:33;100764.25;;;13.74;100.00
32324;BME280;25666;44.350;9.222;2023-04-25T05:28:07;100760.44;;;15.10;100.00
32324;BME280;25666;44.350;9.222;2023-04-25T05:30:39;100757.66;;;15.77;100.00
32324;BME280;25666;44.350;9.222;2023-04-25T05:33:28;100754.16;;;16.85;100.00
32324;BME280;25666;44.350;9.222;2023-04-25T05:35:53;100743.75;;;17.90;100.00
32324;BME280;25666;44.350;9.222;2023-04-25T05:38:19;100744.59;;;18.68;100.00
32324;BME280;25666;44.350;9.222;2023-04-25T05:41:14;100750.66;;;19.71;100.00
32324;BME280;25666;44.350;9.222;2023-04-25T05:43:58;100741.34;;;20.80;100.00
32324;BME280;25666;44.350;9.222;2023-04-25T05:46:32;100758.75;;;21.16;100.00
32324;BME280;25666;44.350;9.222;2023-04-25T05:49:14;100759.56;;;21.17;100.00
32324;BME280;25666;44.350;9.222;2023-04-25T05:51:53;100758.97;;;21.32;100.00
32324;BME280;25666;44.350;9.222;2023-04-25T05:54:44;100759.97;;;20.74;100.00
32324;BME280;25666;44.350;9.222;2023-04-25T05:57:22;100765.72;;;20.67;100.00
32324;BME280;25666;44.350;9.222;2023-04-25T05:59:48;100766.53;;;21.73;100.00
32324;BME280;25666;44.350;9.222;2023-04-25T06:02:14;100759.91;;;24.01;100.00
32324;BME280;25666;44.350;9.222;2023-04-25T06:04:41;100749.59;;;24.43;100.00
32324;BME280;25666;44.350;9.222;2023-04-25T06:07:06;100757.91;;;24.66;100.00
32324;BME280;25666;44.350;9.222;2023-04-25T06:09:32;100743.91;;;23.35;100.00
32324;BME280;25666;44.350;9.222;2023-04-25T06:11:57;100745.28;;;24.83;100.00
32324;BME280;25666;44.350;9.222;2023-04-25T06:14:23;100736.72;;;25.95;84.55
32324;BME280;25666;44.350;9.222;2023-04-25T06:16:50;100737.28;;;26.53;77.88
32324;BME280;25666;44.350;9.222;2023-04-25T06:19:15;100737.41;;;27.18;71.07
32324;BME280;25666;44.350;9.222;2023-04-25T06:21:43;100739.47;;;28.23;65.02
32324;BME280;25666;44.350;9.222;2023-04-25T06:24:09;100737.25;;;29.12;58.09
32324;BME280;25666;44.350;9.222;2023-04-25T06:26:35;100732.31;;;29.31;53.30
32324;BME280;25666;44.350;9.222;2023-04-25T06:29:00;100736.31;;;28.79;54.40
32324;BME280;25666;44.350;9.222;2023-04-25T06:31:25;100733.75;;;28.99;53.65
32324;BME280;25666;44.350;9.222;2023-04-25T06:33:53;100736.59;;;28.90;52.63
32324;BME280;25666;44.350;9.222;2023-04-25T06:36:21;100734.34;;;29.48;50.03
32324;BME280;25666;44.350;9.222;2023-04-25T06:38:53;100729.91;;;29.47;49.06
32324;BME280;25666;44.350;9.222;2023-04-25T06:41:20;100729.91;;;28.84;50.46
32324;BME280;25666;44.350;9.222;2023-04-25T06:43:46;100728.47;;;29.43;48.67
32324;BME280;25666;44.350;9.222;2023-04-25T06:46:29;100725.47;;;31.25;42.96
32324;BME280;25666;44.350;9.222;2023-04-25T06:48:57;100720.41;;;32.98;39.64
32324;BME280;25666;44.350;9.222;2023-04-25T06:51:22;100721.78;;;32.82;38.60
32324;BME280;25666;44.350;9.222;2023-04-25T06:53:52;100728.75;;;33.62;36.66
32324;BME280;25666;44.350;9.222;2023-04-25T06:56:25;100716.75;;;34.79;34.35
32324;BME280;25666;44.350;9.222;2023-04-25T06:59:04;100705.09;;;35.49;32.69
32324;BME280;25666;44.350;9.222;2023-04-25T07:01:35;100700.97;;;35.62;32.71
32324;BME280;25666;44.350;9.222;2023-04-25T07:04:04;100702.78;;;36.09;31.54
32324;BME280;25666;44.350;9.222;2023-04-25T07:06:32;100698.56;;;36.21;30.69
32324;BME280;25666;44.350;9.222;2023-04-25T07:08:57;100703.72;;;33.79;33.50
32324;BME280;25666;44.350;9.222;2023-04-25T07:11:23;100702.69;;;33.82;34.12
32324;BME280;25666;44.350;9.222;2023-04-25T07:13:49;100709.59;;;32.72;36.58
32324;BME280;25666;44.350;9.222;2023-04-25T07:16:16;100701.38;;;32.65;37.22
32324;BME280;25666;44.350;9.222;2023-04-25T07:18:41;100699.72;;;33.45;37.66
32324;BME280;25666;44.350;9.222;2023-04-25T07:21:09;100708.22;;;33.85;36.63
32324;BME280;25666;44.350;9.222;2023-04-25T07:23:36;100695.28;;;32.08;37.16
32324;BME280;25666;44.350;9.222;2023-04-25T07:26:08;100698.47;;;33.26;36.24
32324;BME280;25666;44.350;9.222;2023-04-25T07:28:34;100698.09;;;31.88;38.08
32324;BME280;25666;44.350;9.222;2023-04-25T07:30:59;100697.31;;;31.88;40.54
32324;BME280;25666;44.350;9.222;2023-04-25T07:33:25;100699.06;;;32.00;40.17
32324;BME280;25666;44.350;9.222;2023-04-25T07:35:50;100700.78;;;31.92;39.45
32324;BME280;25666;44.350;9.222;2023-04-25T07:38:17;100699.00;;;31.65;40.15
32324;BME280;25666;44.350;9.222;2023-04-25T07:40:42;100698.81;;;30.06;43.59
32324;BME280;25666;44.350;9.222;2023-04-25T07:43:10;100700.41;;;30.40;45.33
32324;BME280;25666;44.350;9.222;2023-04-25T07:45:53;100703.16;;;30.82;43.49
32324;BME280;25666;44.350;9.222;2023-04-25T07:48:19;100706.31;;;28.61;53.27
32324;BME280;25666;44.350;9.222;2023-04-25T07:50:46;100701.59;;;26.23;87.26
32324;BME280;25666;44.350;9.222;2023-04-25T07:53:12;100705.13;;;24.78;100.00
32324;BME280;25666;44.350;9.222;2023-04-25T07:55:44;100691.63;;;23.13;100.00
32324;BME280;25666;44.350;9.222;2023-04-25T07:58:15;100707.19;;;22.85;100.00
32324;BME280;25666;44.350;9.222;2023-04-25T08:00:47;100704.16;;;22.03;100.00
32324;BME280;25666;44.350;9.222;2023-04-25T08:03:27;100705.47;;;21.08;100.00
32324;BME280;25666;44.350;9.222;2023-04-25T08:05:53;100717.53;;;20.37;100.00
32324;BME280;25666;44.350;9.222;2023-04-25T08:08:19;100717.38;;;20.55;100.00
32324;BME280;25666;44.350;9.222;2023-04-25T08:10:45;100718.56;;;20.06;100.00
32324;BME280;25666;44.350;9.222;2023-04-25T08:13:11;100721.00;;;20.04;100.00
32324;BME280;25666;44.350;9.222;2023-04-25T08:15:38;100734.69;;;19.47;100.00
32324;BME280;25666;44.350;9.222;2023-04-25T08:18:03;100728.75;;;19.20;100.00
32324;BME280;25666;44.350;9.222;2023-04-25T08:20:30;100723.44;;;19.29;100.00
32324;BME280;25666;44.350;9.222;2023-04-25T08:22:57;100724.63;;;19.39;100.00
32324;BME280;25666;44.350;9.222;2023-04-25T08:25:29;100725.81;;;19.38;100.00
32324;BME280;25666;44.350;9.222;2023-04-25T08:27:55;100725.94;;;19.13;100.00
32324;BME280;25666;44.350;9.222;2023-04-25T08:30:21;100727.66;;;18.75;100.00
32324;BME280;25666;44.350;9.222;2023-04-25T08:32:47;100733.72;;;18.63;100.00
32324;BME280;25666;44.350;9.222;2023-04-25T08:35:22;100745.00;;;18.63;100.00
32324;BME280;25666;44.350;9.222;2023-04-25T08:37:49;100736.13;;;18.47;100.00
32324;BME280;25666;44.350;9.222;2023-04-25T08:40:15;100734.16;;;18.51;100.00
32324;BME280;25666;44.350;9.222;2023-04-25T08:43:01;100734.94;;;18.55;100.00
32324;BME280;25666;44.350;9.222;2023-04-25T08:45:31;100736.84;;;19.00;100.00
32324;BME280;25666;44.350;9.222;2023-04-25T08:47:58;100732.91;;;18.69;100.00
32324;BME280;25666;44.350;9.222;2023-04-25T08:50:24;100742.91;;;18.95;100.00
32324;BME280;25666;44.350;9.222;2023-04-25T08:52:53;100740.06;;;19.06;100.00
32324;BME280;25666;44.350;9.222;2023-04-25T08:55:21;100743.66;;;19.13;100.00
32324;BME280;25666;44.350;9.222;2023-04-25T08:57:51;100743.31;;;19.01;100.00
32324;BME280;25666;44.350;9.222;2023-04-25T09:00:18;100744.88;;;19.09;100.00
32324;BME280;25666;44.350;9.222;2023-04-25T09:02:46;100749.25;;;19.27;100.00
32324;BME280;25666;44.350;9.222;2023-04-25T09:05:13;100752.91;;;19.17;100.00
32324;BME280;25666;44.350;9.222;2023-04-25T09:07:39;100746.47;;;19.17;100.00
32324;BME280;25666;44.350;9.222;2023-04-25T09:10:05;100749.69;;;19.22;100.00
32324;BME280;25666;44.350;9.222;2023-04-25T09:12:35;100752.16;;;18.99;100.00
32324;BME280;25666;44.350;9.222;2023-04-25T09:15:12;100744.16;;;18.84;100.00
32324;BME280;25666;44.350;9.222;2023-04-25T09:17:55;100751.78;;;18.83;100.00
32324;BME280;25666;44.350;9.222;2023-04-25T09:20:21;100750.59;;;18.77;100.00
32324;BME280;25666;44.350;9.222;2023-04-25T09:22:47;100750.97;;;18.86;100.00
32324;BME280;25666;44.350;9.222;2023-04-25T09:25:13;100750.97;;;18.86;100.00
32324;BME280;25666;44.350;9.222;2023-04-25T09:27:51;100752.59;;;18.87;100.00
32324;BME280;25666;44.350;9.222;2023-04-25T09:30:39;100757.06;;;18.67;100.00
32324;BME280;25666;44.350;9.222;2023-04-25T09:33:17;100755.47;;;18.55;100.00
32324;BME280;25666;44.350;9.222;2023-04-25T09:35:47;100748.63;;;18.56;100.00
32324;BME280;25666;44.350;9.222;2023-04-25T09:38:45;100744.63;;;18.57;100.00
32324;BME280;25666;44.350;9.222;2023-04-25T09:41:23;100747.41;;;18.61;100.00
32324;BME280;25666;44.350;9.222;2023-04-25T09:43:49;100749.44;;;18.57;100.00
32324;BME280;25666;44.350;9.222;2023-04-25T09:46:16;100746.19;;;18.69;100.00
32324;BME280;25666;44.350;9.222;2023-04-25T09:48:50;100744.97;;;18.77;100.00
32324;BME280;25666;44.350;9.222;2023-04-25T09:51:20;100751.84;;;18.58;100.00
32324;BME280;25666;44.350;9.222;2023-04-25T09:53:50;100741.38;;;18.52;100.00
32324;BME280;25666;44.350;9.222;2023-04-25T09:56:36;100742.97;;;18.46;100.00
32324;BME280;25666;44.350;9.222;2023-04-25T09:59:05;100748.22;;;18.61;100.00
32324;BME280;25666;44.350;9.222;2023-04-25T10:01:34;100735.31;;;18.43;100.00
32324;BME280;25666;44.350;9.222;2023-04-25T10:04:11;100745.00;;;18.35;100.00
32324;BME280;25666;44.350;9.222;2023-04-25T10:07:01;100734.94;;;18.37;100.00
32324;BME280;25666;44.350;9.222;2023-04-25T10:09:28;100739.38;;;18.42;100.00
32324;BME280;25666;44.350;9.222;2023-04-25T10:11:58;100732.91;;;18.55;100.00
32324;BME280;25666;44.350;9.222;2023-04-25T10:14:24;100736.94;;;18.58;100.00
32324;BME280;25666;44.350;9.222;2023-04-25T10:16:50;100737.75;;;18.73;100.00
32324;BME280;25666;44.350;9.222;2023-04-25T10:19:19;100728.03;;;18.81;100.00
32324;BME280;25666;44.350;9.222;2023-04-25T10:22:14;100735.69;;;18.80;100.00
32324;BME280;25666;44.350;9.222;2023-04-25T10:24:42;100734.50;;;18.74;100.00
32324;BME280;25666;44.350;9.222;2023-04-25T10:27:09;100731.66;;;18.85;100.00
32324;BME280;25666;44.350;9.222;2023-04-25T10:29:35;100734.50;;;18.74;100.00
32324;BME280;25666;44.350;9.222;2023-04-25T10:32:00;100737.75;;;18.51;100.00
32324;BME280;25666;44.350;9.222;2023-04-25T10:34:45;100736.56;;;18.52;100.00
32324;BME280;25666;44.350;9.222;2023-04-25T10:37:13;100726.03;;;18.70;100.00
32324;BME280;25666;44.350;9.222;2023-04-25T10:39:40;100730.09;;;18.55;100.00
32324;BME280;25666;44.350;9.222;2023-04-25T10:42:07;100732.50;;;18.43;100.00
32324;BME280;25666;44.350;9.222;2023-04-25T10:44:37;100729.28;;;18.41;100.00
32324;BME280;25666;44.350;9.222;2023-04-25T10:47:03;100725.66;;;18.40;100.00
32324;BME280;25666;44.350;9.222;2023-04-25T10:49:41;100722.84;;;18.68;100.00
32324;BME280;25666;44.350;9.222;2023-04-25T10:54:52;100734.13;;;18.65;100.00
32324;BME280;25666;44.350;9.222;2023-04-25T10:57:39;100736.53;;;18.59;100.00
32324;BME280;25666;44.350;9.222;2023-04-25T11:02:37;100734.50;;;18.46;100.00
32324;BME280;25666;44.350;9.222;2023-04-25T11:05:03;100728.09;;;18.56;100.00
32324;BME280;25666;44.350;9.222;2023-04-25T11:07:34;100731.28;;;18.40;100.00
32324;BME280;25666;44.350;9.222;2023-04-25T11:10:03;100722.88;;;18.26;100.00
32324;BME280;25666;44.350;9.222;2023-04-25T11:12:32;100717.22;;;18.37;100.00
32324;BME280;25666;44.350;9.222;2023-04-25T11:15:02;100706.75;;;18.27;100.00
32324;BME280;25666;44.350;9.222;2023-04-25T11:17:28;100704.34;;;18.04;100.00
32324;BME280;25666;44.350;9.222;2023-04-25T11:20:11;100717.22;;;18.37;100.00
32324;BME280;25666;44.350;9.222;2023-04-25T11:22:38;100713.19;;;18.38;100.00
32324;BME280;25666;44.350;9.222;2023-04-25T11:25:07;100711.19;;;18.42;100.00
32324;BME280;25666;44.350;9.222;2023-04-25T11:27:33;100705.53;;;18.42;100.00
32324;BME280;25666;44.350;9.222;2023-04-25T11:30:10;100704.69;;;18.48;100.00
32324;BME280;25666;44.350;9.222;2023-04-25T11:32:35;100711.97;;;18.56;100.00
32324;BME280;25666;44.350;9.222;2023-04-25T11:35:01;100702.72;;;18.59;100.00
32324;BME280;25666;44.350;9.222;2023-04-25T11:37:26;100699.91;;;18.38;100.00
32324;BME280;25666;44.350;9.222;2023-04-25T11:39:52;100685.41;;;18.54;100.00
32324;BME280;25666;44.350;9.222;2023-04-25T11:42:17;100693.88;;;18.22;100.00
32324;BME280;25666;44.350;9.222;2023-04-25T11:44:43;100683.81;;;18.35;100.00
32324;BME280;25666;44.350;9.222;2023-04-25T11:47:08;100690.22;;;18.46;100.00
32324;BME280;25666;44.350;9.222;2023-04-25T11:49:35;100685.44;;;18.29;100.00
32324;BME280;25666;44.350;9.222;2023-04-25T11:52:00;100681.75;;;18.46;100.00
32324;BME280;25666;44.350;9.222;2023-04-25T11:54:26;100696.66;;;18.64;100.00
32324;BME280;25666;44.350;9.222;2023-04-25T11:56:51;100686.19;;;18.44;100.00
32324;BME280;25666;44.350;9.222;2023-04-25T11:59:23;100683.41;;;18.51;100.00
32324;BME280;25666;44.350;9.222;2023-04-25T12:01:49;100688.19;;;18.75;100.00
32324;BME280;25666;44.350;9.222;2023-04-25T12:04:25;100684.56;;;18.67;100.00
32324;BME280;25666;44.350;9.222;2023-04-25T12:06:54;100672.50;;;18.60;100.00
32324;BME280;25666;44.350;9.222;2023-04-25T12:09:27;100673.72;;;18.66;100.00
32324;BME280;25666;44.350;9.222;2023-04-25T12:11:58;100679.34;;;18.59;100.00
32324;BME280;25666;44.350;9.222;2023-04-25T12:14:28;100682.97;;;18.70;100.00
32324;BME280;25666;44.350;9.222;2023-04-25T12:16:57;100682.97;;;18.49;100.00
32324;BME280;25666;44.350;9.222;2023-04-25T12:19:23;100678.56;;;18.51;100.00
32324;BME280;25666;44.350;9.222;2023-04-25T12:21:50;100692.22;;;18.46;100.00
32324;BME280;25666;44.350;9.222;2023-04-25T12:24:17;100686.63;;;18.35;100.00
32324;BME280;25666;44.350;9.222;2023-04-25T12:26:52;100690.63;;;18.52;100.00
32324;BME280;25666;44.350;9.222;2023-04-25T12:29:25;100702.72;;;18.35;100.00
32324;BME280;25666;44.350;9.222;2023-04-25T12:31:52;100705.16;;;18.50;100.00
32324;BME280;25666;44.350;9.222;2023-04-25T12:34:19;100697.88;;;18.42;100.00
32324;BME280;25666;44.350;9.222;2023-04-25T12:36:45;100698.72;;;18.32;100.00
32324;BME280;25666;44.350;9.222;2023-04-25T12:39:24;100701.91;;;18.38;100.00
32324;BME280;25666;44.350;9.222;2023-04-25T12:41:51;100690.25;;;18.60;100.00
32324;BME280;25666;44.350;9.222;2023-04-25T12:44:19;100691.03;;;18.40;100.00
32324;BME280;25666;44.350;9.222;2023-04-25T12:46:44;100698.28;;;18.37;100.00
32324;BME280;25666;44.350;9.222;2023-04-25T12:49:10;100705.13;;;18.36;100.00
32324;BME280;25666;44.350;9.222;2023-04-25T12:51:36;100692.66;;;18.44;100.00
32324;BME280;25666;44.350;9.222;2023-04-25T12:54:03;100690.22;;;18.43;100.00
32324;BME280;25666;44.350;9.222;2023-04-25T12:56:30;100691.88;;;18.51;100.00
32324;BME280;25666;44.350;9.222;2023-04-25T12:58:55;100693.03;;;18.46;100.00